createdAt,value
2017-12-11T00:00:06.087Z,976.5
2017-12-11T00:01:27.799Z,976.52
2017-12-11T00:02:49.587Z,976.65
2017-12-11T00:04:11.575Z,976.66
2017-12-11T00:05:33.326Z,976.68
2017-12-11T00:06:55.435Z,976.73
2017-12-11T00:08:17.188Z,976.82
2017-12-11T00:09:39.048Z,976.81
2017-12-11T00:11:00.736Z,976.82
2017-12-11T00:12:23.030Z,976.86
2017-12-11T00:13:43.912Z,976.89
2017-12-11T00:15:05.881Z,976.96
2017-12-11T00:16:27.597Z,977
2017-12-11T00:17:49.296Z,977.04
2017-12-11T00:19:11.730Z,977.09
2017-12-11T00:20:33.416Z,977.1
2017-12-11T00:21:55.405Z,977.11
2017-12-11T00:23:17.170Z,977.14
2017-12-11T00:24:38.614Z,977.17
2017-12-11T00:26:00.615Z,977.23
2017-12-11T00:27:22.840Z,977.21
2017-12-11T00:28:44.611Z,977.2
2017-12-11T00:30:06.371Z,977.26
2017-12-11T00:31:27.934Z,977.34
2017-12-11T00:32:49.769Z,977.43
2017-12-11T00:34:11.464Z,977.49
2017-12-11T00:35:32.619Z,977.51
2017-12-11T00:36:54.307Z,977.62
2017-12-11T00:38:16.001Z,977.61
2017-12-11T00:39:37.685Z,977.64
2017-12-11T00:40:59.643Z,977.72
2017-12-11T00:42:21.334Z,977.78
2017-12-11T00:43:43.284Z,977.84
2017-12-11T00:45:05.246Z,977.88
2017-12-11T00:46:27.514Z,977.91
2017-12-11T00:47:49.746Z,977.94
2017-12-11T00:49:11.442Z,978.02
2017-12-11T00:50:33.406Z,978.12
2017-12-11T00:51:55.366Z,978.16
2017-12-11T00:53:17.051Z,978.2
2017-12-11T00:54:39.034Z,978.29
2017-12-11T00:56:00.791Z,978.37
2017-12-11T00:57:22.475Z,978.43
2017-12-11T00:58:44.166Z,978.53
2017-12-11T01:00:05.942Z,978.48
2017-12-11T01:01:27.360Z,978.55
2017-12-11T01:02:48.781Z,978.53
2017-12-11T01:04:10.716Z,978.59
2017-12-11T01:05:33.016Z,978.67
2017-12-11T01:06:54.712Z,978.75
2017-12-11T01:08:16.952Z,978.85
2017-12-11T01:09:38.686Z,978.98
2017-12-11T01:11:00.647Z,979.04
2017-12-11T01:12:22.627Z,979.01
2017-12-11T01:13:44.416Z,979.1
2017-12-11T01:15:06.398Z,979.1
2017-12-11T01:16:28.142Z,979.11
2017-12-11T01:17:49.899Z,979.15
2017-12-11T01:19:11.645Z,979.24
2017-12-11T01:20:33.337Z,979.34
2017-12-11T01:21:55.036Z,979.4
2017-12-11T01:23:16.999Z,979.49
2017-12-11T01:24:39.017Z,979.51
2017-12-11T01:26:01.235Z,979.65
2017-12-11T01:27:23.213Z,979.78
2017-12-11T01:28:44.936Z,979.85
2017-12-11T01:30:06.894Z,979.94
2017-12-11T01:31:28.866Z,980.02
2017-12-11T01:32:50.924Z,980.03
2017-12-11T01:34:12.335Z,980.13
2017-12-11T01:35:34.034Z,980.13
2017-12-11T01:36:55.514Z,980.18
2017-12-11T01:38:16.952Z,980.24
2017-12-11T01:39:38.355Z,980.33
2017-12-11T01:41:00.044Z,980.42
2017-12-11T01:42:22.265Z,980.51
2017-12-11T01:43:44.232Z,980.58
2017-12-11T01:45:05.661Z,980.62
2017-12-11T01:46:27.075Z,980.78
2017-12-11T01:47:48.837Z,980.85
2017-12-11T01:49:10.819Z,980.94
2017-12-11T01:50:32.506Z,980.98
2017-12-11T01:51:54.045Z,981.08
2017-12-11T01:53:15.739Z,981.16
2017-12-11T01:54:37.960Z,981.22
2017-12-11T01:56:00.195Z,981.3
2017-12-11T01:57:21.914Z,981.24
2017-12-11T01:58:43.792Z,981.33
2017-12-11T02:00:05.508Z,981.42
2017-12-11T02:01:27.280Z,981.49
2017-12-11T02:02:49.245Z,981.64
2017-12-11T02:04:11.484Z,981.67
2017-12-11T02:05:33.177Z,981.75
2017-12-11T02:06:55.394Z,981.82
2017-12-11T02:08:17.083Z,981.87
2017-12-11T02:09:39.118Z,981.92
2017-12-11T02:11:00.890Z,982.04
2017-12-11T02:12:22.378Z,982.08
2017-12-11T02:13:44.394Z,982.15
2017-12-11T02:15:06.291Z,982.16
2017-12-11T02:16:27.716Z,982.16
2017-12-11T02:17:49.331Z,982.22
2017-12-11T02:19:10.768Z,982.23
2017-12-11T02:20:33.015Z,982.24
2017-12-11T02:21:54.975Z,982.21
2017-12-11T02:23:17.038Z,982.23
2017-12-11T02:24:38.447Z,982.29
2017-12-11T02:26:00.439Z,982.36
2017-12-11T02:27:22.415Z,982.47
2017-12-11T02:28:44.703Z,982.56
2017-12-11T02:30:06.740Z,982.57
2017-12-11T02:31:28.209Z,982.59
2017-12-11T02:32:50.187Z,982.58
2017-12-11T02:34:12.145Z,982.56
2017-12-11T02:35:34.382Z,982.62
2017-12-11T02:36:56.405Z,982.64
2017-12-11T02:38:17.655Z,982.7
2017-12-11T02:39:39.647Z,982.76
2017-12-11T02:41:01.392Z,982.77
2017-12-11T02:42:22.805Z,982.73
2017-12-11T02:43:44.482Z,982.83
2017-12-11T02:45:06.725Z,982.88
2017-12-11T02:46:29.058Z,982.91
2017-12-11T02:47:50.196Z,982.97
2017-12-11T02:49:11.881Z,983.05
2017-12-11T02:50:33.576Z,983.05
2017-12-11T02:51:55.276Z,983.08
2017-12-11T02:53:16.435Z,983.1
2017-12-11T02:54:38.400Z,983.09
2017-12-11T02:56:00.095Z,983.19
2017-12-11T02:57:22.340Z,983.19
2017-12-11T02:58:44.023Z,983.15
2017-12-11T03:00:05.703Z,983.18
2017-12-11T03:01:27.714Z,983.22
2017-12-11T03:02:49.133Z,983.28
2017-12-11T03:04:10.831Z,983.27
2017-12-11T03:05:33.146Z,983.31
2017-12-11T03:06:55.353Z,983.33
2017-12-11T03:08:16.771Z,983.33
2017-12-11T03:09:38.719Z,983.43
2017-12-11T03:11:00.680Z,983.45
2017-12-11T03:12:21.839Z,983.57
2017-12-11T03:13:43.362Z,983.69
2017-12-11T03:15:05.677Z,983.71
2017-12-11T03:16:27.200Z,983.81
2017-12-11T03:17:49.260Z,983.83
2017-12-11T03:19:11.480Z,983.9
2017-12-11T03:20:32.928Z,983.87
2017-12-11T03:21:54.617Z,983.78
2017-12-11T03:23:16.565Z,983.77
2017-12-11T03:24:38.522Z,983.79
2017-12-11T03:25:59.694Z,983.79
2017-12-11T03:27:21.757Z,983.74
2017-12-11T03:28:43.930Z,983.75
2017-12-11T03:30:05.711Z,983.76
2017-12-11T03:31:27.675Z,983.69
2017-12-11T03:32:49.367Z,983.76
2017-12-11T03:34:11.069Z,983.81
2017-12-11T03:35:33.043Z,983.92
2017-12-11T03:36:54.841Z,984.02
2017-12-11T03:38:16.258Z,984.12
2017-12-11T03:39:38.201Z,984.16
2017-12-11T03:41:00.057Z,984.22
2017-12-11T03:42:21.998Z,984.28
2017-12-11T03:43:43.982Z,984.29
2017-12-11T03:45:05.400Z,984.29
2017-12-11T03:46:27.681Z,984.29
2017-12-11T03:47:48.827Z,984.35
2017-12-11T03:49:10.254Z,984.36
2017-12-11T03:50:31.993Z,984.28
2017-12-11T03:51:53.528Z,984.34
2017-12-11T03:53:15.766Z,984.42
2017-12-11T03:54:38.141Z,984.55
2017-12-11T03:56:00.373Z,984.67
2017-12-11T03:57:22.365Z,984.83
2017-12-11T03:58:43.943Z,984.87
2017-12-11T04:00:05.415Z,984.89
2017-12-11T04:01:27.659Z,984.89
2017-12-11T04:02:48.823Z,985.02
2017-12-11T04:04:10.525Z,985.11
2017-12-11T04:05:32.276Z,985.28
2017-12-11T04:06:53.725Z,985.38
2017-12-11T04:08:15.185Z,985.44
2017-12-11T04:09:37.424Z,985.53
2017-12-11T04:10:59.442Z,985.63
2017-12-11T04:12:21.400Z,985.72
2017-12-11T04:13:42.578Z,985.77
2017-12-11T04:15:04.262Z,985.79
2017-12-11T04:16:25.997Z,985.84
2017-12-11T04:17:48.051Z,985.89
2017-12-11T04:19:09.536Z,985.97
2017-12-11T04:20:30.959Z,986.1
2017-12-11T04:21:52.473Z,986.25
2017-12-11T04:23:14.452Z,986.37
2017-12-11T04:24:36.403Z,986.43
2017-12-11T04:25:57.994Z,986.54
2017-12-11T04:27:19.954Z,986.66
2017-12-11T04:28:41.934Z,986.72
2017-12-11T04:30:03.924Z,986.72
2017-12-11T04:31:26.156Z,986.79
2017-12-11T04:32:48.172Z,986.82
2017-12-11T04:34:09.891Z,986.82
2017-12-11T04:35:32.436Z,986.87
2017-12-11T04:36:53.970Z,986.89
2017-12-11T04:38:15.658Z,986.96
2017-12-11T04:39:37.887Z,986.96
2017-12-11T04:40:59.675Z,986.85
2017-12-11T04:42:21.954Z,986.85
2017-12-11T04:43:43.493Z,986.87
2017-12-11T04:45:04.950Z,986.89
2017-12-11T04:46:26.902Z,986.94
2017-12-11T04:47:48.594Z,986.97
2017-12-11T04:49:10.281Z,987.06
2017-12-11T04:50:31.822Z,987.14
2017-12-11T04:51:53.849Z,987.08
2017-12-11T04:53:15.254Z,987.01
2017-12-11T04:54:36.941Z,986.96
2017-12-11T04:55:58.623Z,986.99
2017-12-11T04:57:20.207Z,987.02
2017-12-11T04:58:42.164Z,986.92
2017-12-11T05:00:03.952Z,986.76
2017-12-11T05:01:25.904Z,986.65
2017-12-11T05:02:47.884Z,986.54
2017-12-11T05:04:09.831Z,986.42
2017-12-11T05:05:31.258Z,986.37
2017-12-11T05:06:53.503Z,986.34
2017-12-11T05:08:15.194Z,986.37
2017-12-11T05:09:36.883Z,986.38
2017-12-11T05:10:58.295Z,986.22
2017-12-11T05:12:19.717Z,986.13
2017-12-11T05:13:41.703Z,986.06
2017-12-11T05:15:03.412Z,985.98
2017-12-11T05:16:25.390Z,985.83
2017-12-11T05:17:47.622Z,985.71
2017-12-11T05:19:09.583Z,985.75
2017-12-11T05:20:31.268Z,985.86
2017-12-11T05:21:53.345Z,985.99
2017-12-11T05:23:15.024Z,986.05
2017-12-11T05:24:36.461Z,986
2017-12-11T05:25:58.170Z,986
2017-12-11T05:27:19.718Z,985.9
2017-12-11T05:28:41.153Z,985.87
2017-12-11T05:30:02.594Z,985.83
2017-12-11T05:31:24.647Z,985.8
2017-12-11T05:32:46.331Z,985.86
2017-12-11T05:34:07.749Z,985.8
2017-12-11T05:35:29.493Z,985.85
2017-12-11T05:36:51.174Z,985.94
2017-12-11T05:38:12.324Z,986.02
2017-12-11T05:39:34.656Z,986.19
2017-12-11T05:40:56.384Z,986.34
2017-12-11T05:42:18.626Z,986.39
2017-12-11T05:43:40.310Z,986.42
2017-12-11T05:45:02.005Z,986.4
2017-12-11T05:46:23.984Z,986.37
2017-12-11T05:47:45.684Z,986.44
2017-12-11T05:49:07.417Z,986.48
2017-12-11T05:50:29.092Z,986.54
2017-12-11T05:51:50.016Z,986.61
2017-12-11T05:53:12.309Z,986.62
2017-12-11T05:54:34.755Z,986.62
2017-12-11T05:55:56.721Z,986.63
2017-12-11T05:57:18.725Z,986.63
2017-12-11T05:58:40.025Z,986.59
2017-12-11T06:00:01.432Z,986.57
2017-12-11T06:01:23.243Z,986.61
2017-12-11T06:02:45.636Z,986.69
2017-12-11T06:04:07.567Z,986.69
2017-12-11T06:05:29.293Z,986.69
2017-12-11T06:06:51.533Z,986.7
2017-12-11T06:08:13.540Z,986.75
2017-12-11T06:09:34.964Z,986.8
2017-12-11T06:10:56.394Z,986.86
2017-12-11T06:12:17.830Z,986.87
2017-12-11T06:13:39.936Z,986.8
2017-12-11T06:15:02.184Z,986.79
2017-12-11T06:16:24.253Z,986.71
2017-12-11T06:17:45.944Z,986.68
2017-12-11T06:19:07.908Z,986.58
2017-12-11T06:20:29.351Z,986.56
2017-12-11T06:21:51.052Z,986.52
2017-12-11T06:23:12.844Z,986.49
2017-12-11T06:24:34.569Z,986.43
2017-12-11T06:25:56.827Z,986.4
2017-12-11T06:27:18.798Z,986.34
2017-12-11T06:28:40.762Z,986.22
2017-12-11T06:30:02.766Z,986.15
2017-12-11T06:31:24.472Z,986.07
2017-12-11T06:32:46.153Z,986.05
2017-12-11T06:34:07.580Z,986.13
2017-12-11T06:35:29.803Z,986.21
2017-12-11T06:36:51.768Z,986.31
2017-12-11T06:38:14.035Z,986.33
2017-12-11T06:39:36.004Z,986.39
2017-12-11T06:40:57.945Z,986.48
2017-12-11T06:42:19.642Z,986.57
2017-12-11T06:43:41.343Z,986.56
2017-12-11T06:45:03.577Z,986.61
2017-12-11T06:46:25.033Z,986.61
2017-12-11T06:47:47.041Z,986.65
2017-12-11T06:49:08.476Z,986.78
2017-12-11T06:50:30.500Z,986.79
2017-12-11T06:51:52.478Z,986.84
2017-12-11T06:53:14.694Z,986.9
2017-12-11T06:54:36.664Z,986.98
2017-12-11T06:55:58.627Z,986.96
2017-12-11T06:57:20.681Z,987.01
2017-12-11T06:58:42.090Z,986.93
2017-12-11T07:00:03.990Z,986.95
2017-12-11T07:01:25.669Z,986.97
2017-12-11T07:02:47.632Z,986.99
2017-12-11T07:04:09.593Z,987
2017-12-11T07:05:31.872Z,986.99
2017-12-11T07:06:54.153Z,986.94
2017-12-11T07:08:15.573Z,986.87
2017-12-11T07:09:37.073Z,986.8
2017-12-11T07:10:59.044Z,986.74
2017-12-11T07:12:20.997Z,986.71
2017-12-11T07:13:42.707Z,986.66
2017-12-11T07:15:04.681Z,986.63
2017-12-11T07:16:26.905Z,986.6
2017-12-11T07:17:48.892Z,986.57
2017-12-11T07:19:11.136Z,986.59
2017-12-11T07:20:33.095Z,986.66
2017-12-11T07:21:54.796Z,986.71
2017-12-11T07:23:16.761Z,986.73
2017-12-11T07:24:38.604Z,986.72
2017-12-11T07:26:00.600Z,986.67
2017-12-11T07:27:22.298Z,986.59
2017-12-11T07:28:43.995Z,986.58
2017-12-11T07:30:06.044Z,986.64
2017-12-11T07:31:28.106Z,986.7
2017-12-11T07:32:49.779Z,986.76
2017-12-11T07:34:12.006Z,986.74
2017-12-11T07:35:33.708Z,986.75
2017-12-11T07:36:55.403Z,986.81
2017-12-11T07:38:17.363Z,986.82
2017-12-11T07:39:39.210Z,986.9
2017-12-11T07:41:00.895Z,986.87
2017-12-11T07:42:22.975Z,986.89
2017-12-11T07:43:44.679Z,986.92
2017-12-11T07:45:06.910Z,986.92
2017-12-11T07:46:28.639Z,986.95
2017-12-11T07:47:50.355Z,986.96
2017-12-11T07:49:12.061Z,986.95
2017-12-11T07:50:33.499Z,986.94
2017-12-11T07:51:55.506Z,986.98
2017-12-11T07:53:17.543Z,986.94
2017-12-11T07:54:39.243Z,986.89
2017-12-11T07:56:01.036Z,986.84
2017-12-11T07:57:22.979Z,986.82
2017-12-11T07:58:44.407Z,986.76
2017-12-11T08:00:06.093Z,986.76
2017-12-11T08:01:27.779Z,986.76
2017-12-11T08:02:49.464Z,986.7
2017-12-11T08:04:11.159Z,986.68
2017-12-11T08:05:33.281Z,986.66
2017-12-11T08:06:54.993Z,986.71
2017-12-11T08:08:17.227Z,986.75
2017-12-11T08:09:38.382Z,986.81
2017-12-11T08:11:00.462Z,986.84
2017-12-11T08:12:22.336Z,986.94
2017-12-11T08:13:44.063Z,986.94
2017-12-11T08:15:06.099Z,987.1
2017-12-11T08:16:27.837Z,987.16
2017-12-11T08:17:49.795Z,987.24
2017-12-11T08:19:12.078Z,987.34
2017-12-11T08:20:34.047Z,987.43
2017-12-11T08:21:56.112Z,987.53
2017-12-11T08:23:17.543Z,987.64
2017-12-11T08:24:39.313Z,987.69
2017-12-11T08:26:01.323Z,987.72
2017-12-11T08:27:23.025Z,987.75
2017-12-11T08:28:44.775Z,987.75
2017-12-11T08:30:06.613Z,987.79
2017-12-11T08:31:28.608Z,987.71
2017-12-11T08:32:50.919Z,987.66
2017-12-11T08:34:12.339Z,987.73
2017-12-11T08:35:34.029Z,987.79
2017-12-11T08:36:56.275Z,987.84
2017-12-11T08:38:17.964Z,987.82
2017-12-11T08:39:39.404Z,987.82
2017-12-11T08:41:01.125Z,987.86
2017-12-11T08:42:23.104Z,987.79
2017-12-11T08:43:44.850Z,987.81
2017-12-11T08:45:06.824Z,987.81
2017-12-11T08:46:29.062Z,987.89
2017-12-11T08:47:50.767Z,987.98
2017-12-11T08:49:12.739Z,988.09
2017-12-11T08:50:34.721Z,988.14
2017-12-11T08:51:56.429Z,988.13
2017-12-11T08:53:18.124Z,988.14
2017-12-11T08:54:40.340Z,988.3
2017-12-11T08:56:02.039Z,988.34
2017-12-11T08:57:23.459Z,988.33
2017-12-11T08:58:45.462Z,988.42
2017-12-11T09:00:07.527Z,988.56
2017-12-11T09:01:29.023Z,988.69
2017-12-11T09:02:50.846Z,988.69
2017-12-11T09:04:12.876Z,988.69
2017-12-11T09:05:35.121Z,988.59
2017-12-11T09:06:57.110Z,988.52
2017-12-11T09:08:17.997Z,988.55
2017-12-11T09:09:39.693Z,988.52
2017-12-11T09:11:01.559Z,988.48
2017-12-11T09:12:23.547Z,988.44
2017-12-11T09:13:45.336Z,988.41
2017-12-11T09:15:07.328Z,988.31
2017-12-11T09:16:29.560Z,988.34
2017-12-11T09:17:50.737Z,988.34
2017-12-11T09:19:12.762Z,988.37
2017-12-11T09:20:34.792Z,988.36
2017-12-11T09:21:56.066Z,988.36
2017-12-11T09:23:18.018Z,988.31
2017-12-11T09:24:39.724Z,988.17
2017-12-11T09:26:01.420Z,988.16
2017-12-11T09:27:23.452Z,988.14
2017-12-11T09:28:44.880Z,988.09
2017-12-11T09:30:06.592Z,988.03
2017-12-11T09:31:28.898Z,987.96
2017-12-11T09:32:50.076Z,988
2017-12-11T09:34:11.812Z,988.01
2017-12-11T09:35:33.893Z,987.96
2017-12-11T09:36:55.861Z,987.88
2017-12-11T09:38:17.632Z,987.84
2017-12-11T09:39:39.329Z,987.82
2017-12-11T09:41:00.588Z,987.85
2017-12-11T09:42:22.573Z,988.02
2017-12-11T09:43:44.279Z,988.11
2017-12-11T09:45:06.320Z,988.2
2017-12-11T09:46:28.372Z,988.16
2017-12-11T09:47:50.361Z,988.17
2017-12-11T09:49:12.115Z,988.13
2017-12-11T09:50:33.810Z,988.07
2017-12-11T09:51:55.513Z,988.03
2017-12-11T09:53:17.487Z,988.03
2017-12-11T09:54:39.553Z,988.05
2017-12-11T09:56:01.533Z,988.11
2017-12-11T09:57:22.972Z,988.12
2017-12-11T09:58:44.648Z,988.05
2017-12-11T10:00:06.693Z,987.98
2017-12-11T10:01:28.742Z,988.01
2017-12-11T10:02:50.791Z,988.04
2017-12-11T10:04:13.053Z,988.06
2017-12-11T10:05:35.081Z,988.15
2017-12-11T10:06:57.324Z,988.17
2017-12-11T10:08:19.657Z,988.2
2017-12-11T10:09:41.772Z,988.19
2017-12-11T10:11:03.742Z,988.21
2017-12-11T10:12:25.474Z,988.21
2017-12-11T10:13:47.276Z,988.22
2017-12-11T10:15:08.995Z,988.19
2017-12-11T10:16:30.987Z,988.12
2017-12-11T10:17:52.960Z,988.03
2017-12-11T10:19:15.193Z,987.95
2017-12-11T10:20:37.969Z,987.96
2017-12-11T10:22:00.321Z,987.95
2017-12-11T10:23:22.281Z,987.91
2017-12-11T10:24:43.721Z,987.92
2017-12-11T10:26:05.540Z,987.95
2017-12-11T10:27:27.583Z,987.91
2017-12-11T10:28:49.017Z,987.87
2017-12-11T10:30:11.062Z,987.88
2017-12-11T10:31:32.495Z,987.91
2017-12-11T10:32:54.493Z,987.94
2017-12-11T10:34:16.459Z,987.9
2017-12-11T10:35:38.723Z,987.78
2017-12-11T10:37:00.682Z,987.74
2017-12-11T10:38:22.105Z,987.72
2017-12-11T10:39:43.806Z,987.78
2017-12-11T10:41:05.763Z,987.76
2017-12-11T10:42:27.995Z,987.69
2017-12-11T10:43:50.405Z,987.62
2017-12-11T10:45:12.723Z,987.62
2017-12-11T10:46:34.425Z,987.66
2017-12-11T10:47:56.404Z,987.65
2017-12-11T10:49:17.885Z,987.62
2017-12-11T10:50:39.381Z,987.57
2017-12-11T10:52:01.100Z,987.5
2017-12-11T10:53:22.528Z,987.48
2017-12-11T10:54:44.865Z,987.47
2017-12-11T10:56:06.566Z,987.48
2017-12-11T10:57:29.064Z,987.58
2017-12-11T10:58:50.752Z,987.65
2017-12-11T11:00:12.461Z,987.67
2017-12-11T11:01:34.192Z,987.67
2017-12-11T11:02:56.152Z,987.69
2017-12-11T11:04:18.247Z,987.76
2017-12-11T11:05:39.407Z,987.72
2017-12-11T11:07:01.537Z,987.71
2017-12-11T11:08:22.973Z,987.72
2017-12-11T11:09:44.673Z,987.62
2017-12-11T11:11:05.945Z,987.64
2017-12-11T11:12:27.742Z,987.64
2017-12-11T11:13:49.164Z,987.64
2017-12-11T11:15:10.638Z,987.57
2017-12-11T11:16:32.608Z,987.53
2017-12-11T11:17:54.573Z,987.45
2017-12-11T11:19:16.285Z,987.39
2017-12-11T11:20:38.240Z,987.38
2017-12-11T11:21:59.705Z,987.36
2017-12-11T11:23:21.692Z,987.35
2017-12-11T11:24:43.943Z,987.3
2017-12-11T11:26:05.669Z,987.32
2017-12-11T11:27:27.633Z,987.38
2017-12-11T11:28:49.722Z,987.53
2017-12-11T11:30:11.185Z,987.59
2017-12-11T11:31:33.214Z,987.55
2017-12-11T11:32:55.305Z,987.53
2017-12-11T11:34:17.024Z,987.48
2017-12-11T11:35:38.979Z,987.37
2017-12-11T11:37:00.948Z,987.39
2017-12-11T11:38:22.674Z,987.3
2017-12-11T11:39:44.182Z,987.38
2017-12-11T11:41:06.028Z,987.44
2017-12-11T11:42:27.728Z,987.37
2017-12-11T11:43:49.690Z,987.33
2017-12-11T11:45:11.795Z,987.36
2017-12-11T11:46:33.889Z,987.41
2017-12-11T11:47:56.132Z,987.31
2017-12-11T11:49:17.851Z,987.22
2017-12-11T11:50:39.843Z,987.19
2017-12-11T11:52:01.045Z,987.07
2017-12-11T11:53:22.740Z,986.94
2017-12-11T11:54:44.490Z,986.96
2017-12-11T11:56:06.445Z,987.08
2017-12-11T11:57:28.165Z,987.15
2017-12-11T11:58:50.158Z,987.2
2017-12-11T12:00:12.131Z,987.1
2017-12-11T12:01:33.051Z,987
2017-12-11T12:02:54.808Z,986.91
2017-12-11T12:04:16.776Z,986.96
2017-12-11T12:05:38.480Z,987
2017-12-11T12:07:00.205Z,986.97
2017-12-11T12:08:22.498Z,987.02
2017-12-11T12:09:44.514Z,986.97
2017-12-11T12:11:05.948Z,986.9
2017-12-11T12:12:27.642Z,986.79
2017-12-11T12:13:49.343Z,986.73
2017-12-11T12:15:10.813Z,986.73
2017-12-11T12:16:32.257Z,986.68
2017-12-11T12:17:54.003Z,986.62
2017-12-11T12:19:15.705Z,986.55
2017-12-11T12:20:37.677Z,986.5
2017-12-11T12:21:59.895Z,986.44
2017-12-11T12:23:21.617Z,986.42
2017-12-11T12:24:43.591Z,986.39
2017-12-11T12:26:05.015Z,986.27
2017-12-11T12:27:27.002Z,986.21
2017-12-11T12:28:49.406Z,986.22
2017-12-11T12:30:11.092Z,986.24
2017-12-11T12:31:32.800Z,986.15
2017-12-11T12:32:54.834Z,986.09
2017-12-11T12:34:16.804Z,986.12
2017-12-11T12:35:38.216Z,986.16
2017-12-11T12:37:00.565Z,986.23
2017-12-11T12:38:22.258Z,986.15
2017-12-11T12:39:44.076Z,986.1
2017-12-11T12:41:06.416Z,986.07
2017-12-11T12:42:28.155Z,986.08
2017-12-11T12:43:50.492Z,986.05
2017-12-11T12:45:12.280Z,986.01
2017-12-11T12:46:34.246Z,985.96
2017-12-11T12:47:56.288Z,985.98
2017-12-11T12:49:17.716Z,985.96
2017-12-11T12:50:40.019Z,985.98
2017-12-11T12:52:01.980Z,985.92
2017-12-11T12:53:23.143Z,985.91
2017-12-11T12:54:45.129Z,985.83
2017-12-11T12:56:07.519Z,985.73
2017-12-11T12:57:29.501Z,985.76
2017-12-11T12:58:50.932Z,985.72
2017-12-11T13:00:12.624Z,985.68
2017-12-11T13:01:34.885Z,985.64
2017-12-11T13:02:57.116Z,985.57
2017-12-11T13:04:19.186Z,985.54
2017-12-11T13:05:40.942Z,985.47
2017-12-11T13:07:02.458Z,985.43
2017-12-11T13:08:24.154Z,985.39
2017-12-11T13:09:46.186Z,985.4
2017-12-11T13:11:07.869Z,985.29
2017-12-11T13:12:30.127Z,985.21
2017-12-11T13:13:52.384Z,985.12
2017-12-11T13:15:14.545Z,985.05
2017-12-11T13:16:36.235Z,984.89
2017-12-11T13:17:58.191Z,984.79
2017-12-11T13:19:20.166Z,984.78
2017-12-11T13:20:42.261Z,984.7
2017-12-11T13:22:04.534Z,984.7
2017-12-11T13:23:26.566Z,984.68
2017-12-11T13:24:48.848Z,984.61
2017-12-11T13:26:10.567Z,984.61
2017-12-11T13:27:32.536Z,984.57
2017-12-11T13:28:54.620Z,984.61
2017-12-11T13:30:16.582Z,984.6
2017-12-11T13:31:38.572Z,984.58
2017-12-11T13:33:00.239Z,984.55
2017-12-11T13:34:21.706Z,984.58
2017-12-11T13:35:43.679Z,984.52
2017-12-11T13:37:05.116Z,984.37
2017-12-11T13:38:27.369Z,984.29
2017-12-11T13:39:49.069Z,984.35
2017-12-11T13:41:10.934Z,984.41
2017-12-11T13:42:32.634Z,984.45
2017-12-11T13:43:53.886Z,984.43
2017-12-11T13:45:15.621Z,984.5
2017-12-11T13:46:37.326Z,984.46
2017-12-11T13:47:58.758Z,984.44
2017-12-11T13:49:20.565Z,984.44
2017-12-11T13:50:41.866Z,984.45
2017-12-11T13:52:03.836Z,984.46
2017-12-11T13:53:25.265Z,984.51
2017-12-11T13:54:46.981Z,984.51
2017-12-11T13:56:08.462Z,984.53
2017-12-11T13:57:30.499Z,984.46
2017-12-11T13:58:52.462Z,984.39
2017-12-11T14:00:14.285Z,984.34
2017-12-11T14:01:36.266Z,984.35
2017-12-11T14:02:58.845Z,984.41
2017-12-11T14:04:20.536Z,984.39
2017-12-11T14:05:42.601Z,984.35
2017-12-11T14:07:04.557Z,984.41
2017-12-11T14:08:26.903Z,984.41
2017-12-11T14:09:48.628Z,984.47
2017-12-11T14:11:10.497Z,984.56
2017-12-11T14:12:32.487Z,984.72
2017-12-11T14:13:54.465Z,984.75
2017-12-11T14:15:16.195Z,984.82
2017-12-11T14:16:37.885Z,984.9
2017-12-11T14:18:00.168Z,984.95
2017-12-11T14:19:22.163Z,985.01
2017-12-11T14:20:43.878Z,985.08
2017-12-11T14:22:05.705Z,985.18
2017-12-11T14:23:27.670Z,985.26
2017-12-11T14:24:49.665Z,985.35
2017-12-11T14:26:11.434Z,985.39
2017-12-11T14:27:33.149Z,985.39
2017-12-11T14:28:55.395Z,985.32
2017-12-11T14:30:17.368Z,985.25
2017-12-11T14:31:39.625Z,985.2
2017-12-11T14:33:01.327Z,985.16
2017-12-11T14:34:23.587Z,985.1
2017-12-11T14:35:45.007Z,985.04
2017-12-11T14:37:07.267Z,984.96
2017-12-11T14:38:29.246Z,984.95
2017-12-11T14:39:51.227Z,984.82
2017-12-11T14:41:13.507Z,984.79
2017-12-11T14:42:35.491Z,984.77
2017-12-11T14:43:57.761Z,984.73
2017-12-11T14:45:19.478Z,984.6
2017-12-11T14:46:41.719Z,984.52
2017-12-11T14:48:03.997Z,984.43
2017-12-11T14:49:26.377Z,984.31
2017-12-11T14:50:48.346Z,984.32
2017-12-11T14:52:10.367Z,984.38
2017-12-11T14:53:32.116Z,984.52
2017-12-11T14:54:54.165Z,984.65
2017-12-11T14:56:16.150Z,984.63
2017-12-11T14:57:38.518Z,984.64
2017-12-11T14:59:00.765Z,984.54
2017-12-11T15:00:22.810Z,984.46
2017-12-11T15:01:44.866Z,984.41
2017-12-11T15:03:06.685Z,984.27
2017-12-11T15:04:28.384Z,984.1
2017-12-11T15:05:49.820Z,983.96
2017-12-11T15:07:11.537Z,983.81
2017-12-11T15:08:33.447Z,983.89
2017-12-11T15:09:55.197Z,983.95
2017-12-11T15:11:17.183Z,983.87
2017-12-11T15:12:38.965Z,983.78
2017-12-11T15:14:01.396Z,983.65
2017-12-11T15:15:23.110Z,983.65
2017-12-11T15:16:44.945Z,983.56
2017-12-11T15:18:06.660Z,983.73
2017-12-11T15:19:28.898Z,983.71
2017-12-11T15:20:50.892Z,983.7
2017-12-11T15:22:13.127Z,983.71
2017-12-11T15:23:35.386Z,983.71
2017-12-11T15:24:57.716Z,983.61
2017-12-11T15:26:20.022Z,983.56
2017-12-11T15:27:42.035Z,983.51
2017-12-11T15:29:03.854Z,983.54
2017-12-11T15:30:25.538Z,983.63
2017-12-11T15:31:47.242Z,983.63
2017-12-11T15:33:08.962Z,983.62
2017-12-11T15:34:30.674Z,983.61
2017-12-11T15:35:52.686Z,983.62
2017-12-11T15:37:14.405Z,983.52
2017-12-11T15:38:36.654Z,983.33
2017-12-11T15:39:58.755Z,983.15
2017-12-11T15:41:21.035Z,983.11
2017-12-11T15:42:42.724Z,982.99
2017-12-11T15:44:04.957Z,982.89
2017-12-11T15:45:27.212Z,982.77
2017-12-11T15:46:48.986Z,982.57
2017-12-11T15:48:11.236Z,982.44
2017-12-11T15:49:33.489Z,982.4
2017-12-11T15:50:55.037Z,982.43
2017-12-11T15:52:17.024Z,982.45
2017-12-11T15:53:38.775Z,982.55
2017-12-11T15:55:01.030Z,982.46
2017-12-11T15:56:23.046Z,982.51
2017-12-11T15:57:45.398Z,982.43
2017-12-11T15:59:07.409Z,982.43
2017-12-11T16:00:29.686Z,982.4
2017-12-11T16:01:51.441Z,982.39
2017-12-11T16:03:13.443Z,982.53
2017-12-11T16:04:35.733Z,982.76
2017-12-11T16:05:58.006Z,982.91
2017-12-11T16:07:19.978Z,983.09
2017-12-11T16:08:42.236Z,983.14
2017-12-11T16:10:04.513Z,983.11
2017-12-11T16:11:26.475Z,983.12
2017-12-11T16:12:48.515Z,983.22
2017-12-11T16:14:10.783Z,983.25
2017-12-11T16:15:32.759Z,983.19
2017-12-11T16:16:55.206Z,983.12
2017-12-11T16:18:17.214Z,983.18
2017-12-11T16:19:39.199Z,983.13
2017-12-11T16:21:01.204Z,983.08
2017-12-11T16:22:23.198Z,982.98
2017-12-11T16:23:45.446Z,983.03
2017-12-11T16:25:07.487Z,983.11
2017-12-11T16:26:29.499Z,983.11
2017-12-11T16:27:51.317Z,983.14
2017-12-11T16:29:13.410Z,983.14
2017-12-11T16:30:35.136Z,983.12
2017-12-11T16:31:57.156Z,983.1
2017-12-11T16:33:19.157Z,983
2017-12-11T16:34:41.540Z,982.98
2017-12-11T16:36:03.255Z,983.03
2017-12-11T16:37:25.518Z,983.06
2017-12-11T16:38:47.503Z,983.07
2017-12-11T16:40:09.773Z,983.1
2017-12-11T16:41:32.122Z,983.14
2017-12-11T16:42:53.702Z,983.24
2017-12-11T16:44:15.685Z,983.36
2017-12-11T16:45:37.942Z,983.43
2017-12-11T16:46:59.651Z,983.47
2017-12-11T16:48:21.895Z,983.56
2017-12-11T16:49:44.272Z,983.62
2017-12-11T16:51:06.257Z,983.58
2017-12-11T16:52:27.988Z,983.51
2017-12-11T16:53:49.730Z,983.59
2017-12-11T16:55:11.494Z,983.55
2017-12-11T16:56:33.781Z,983.36
2017-12-11T16:57:56.330Z,983.32
2017-12-11T16:59:18.583Z,983.35
2017-12-11T17:00:40.610Z,983.31
2017-12-11T17:02:02.172Z,983.28
2017-12-11T17:03:24.516Z,983.22